Albany, NY

11:37 AM EST on January 26, 2015 (GMT -0500)
APRSWXNET North Bethleham NY US | Change Station
CLOSE
Current Station
Personal Weather Station
Location: Albany, NY
Elevation: 393 ft
Nearby Weather Stations
Active Advisory: Winter Storm Warning

Elev 393 ft 42.67 °N, 73.83 °W | Updated 34 minutes ago

Overcast
Overcast
12 °F
Feels Like 12 °F
N
0
Wind Variable Wind from NE
Gusts 2.0 mph

Today
High -- | Low -- °F
--% Chance of Precip.
Yesterday
High -- | Low -- °F
Precip. -- in
7:15 AM 5:00 PM
Waxing Crescent, 44% visible
Pressure 30.14 in
Visibility 10.0 miles
Clouds Scattered Clouds 5500 ft
Overcast 8500 ft
Windchill 12 °F
Dew Point 2 °F
Humidity 62%
Rainfall 0.00 in
Snow Depth Not available.
UV 1 out of 12
Pollen .10 out of 12
Air Quality Not available.
Flu Activity Not available.
METAR KALB 261551Z 02005KT 10SM SCT055 OVC085 M11/M18 A3012 RMK AO2 SLP204 T11061183

More Conditions Fewer Conditions

Pressure 30.14 in
Visibility 10.0 miles
Clouds Scattered Clouds 5500 ft
Overcast 8500 ft
Windchill 12 °F
Dew Point 2 °F
Humidity 62%
Rainfall 0.00 in
Snow Depth Not available.
UV 1 out of 12
Pollen .10 out of 12
Air Quality Not available.
Flu Activity Not available.
METAR KALB 261551Z 02005KT 10SM SCT055 OVC085 M11/M18 A3012 RMK AO2 SLP204 T11061183

More Conditions Fewer Conditions

10-Day Weather Forecast

Almanac

Astronomy

Jan. 26, 2015 Rise Set
Actual Time
Civil Twilight
Nautical Twilight
Astronomical Twilight
Moon
Length of Visible Light
Length of Day
Tomorrow will be .
, % of the Moon is Illuminated

Today's Extremes

State Highs State Lows

Community

WunderPhotos

Upload Photos

1,790,272 photos uploaded!

WunderBlogs® & News

Nearby

Air Quality

  Air Quality AQ Index Pollutant
Not available.

Snow Depth

Station Depth Elevation

Earthquake Activity

City Distance Mag. Time & Date
Minimum magnitude displayed is 2.5.

Coastal Water Temperatures

Place Temperature

Nearby Weather Stations